createdAt,value
2019-05-15T00:00:18.312Z,53.59
2019-05-15T00:02:48.924Z,55.40
2019-05-15T00:05:18.857Z,55.40
2019-05-15T00:07:48.405Z,55.08
2019-05-15T00:10:18.136Z,55.92
2019-05-15T00:12:48.673Z,55.93
2019-05-15T00:15:18.327Z,55.74
2019-05-15T00:17:48.524Z,55.80
2019-05-15T00:20:20.105Z,57.17
2019-05-15T00:22:48.416Z,58.21
2019-05-15T00:25:18.880Z,58.95
2019-05-15T00:27:49.277Z,58.95
2019-05-15T00:30:18.565Z,58.75
2019-05-15T00:32:48.791Z,59.02
2019-05-15T00:35:18.982Z,59.02
2019-05-15T00:37:49.240Z,59.72
2019-05-15T00:40:18.614Z,59.86
2019-05-15T00:42:48.778Z,60.16
2019-05-15T00:45:19.138Z,60.16
2019-05-15T00:47:48.645Z,59.97
2019-05-15T00:50:19.015Z,60.61
2019-05-15T00:52:48.536Z,60.45
2019-05-15T00:55:19.053Z,61.32
2019-05-15T00:57:49.729Z,61.73
2019-05-15T01:00:43.089Z,62.30
2019-05-15T01:03:13.148Z,62.21
2019-05-15T01:05:42.126Z,63.29
2019-05-15T01:08:11.027Z,62.98
2019-05-15T01:10:40.079Z,63.92
2019-05-15T01:13:08.976Z,64.54
2019-05-15T01:15:38.805Z,63.93
2019-05-15T01:18:09.289Z,65.41
2019-05-15T01:20:39.231Z,64.87
2019-05-15T01:23:09.031Z,64.87
2019-05-15T01:25:39.109Z,65.07
2019-05-15T01:28:09.494Z,65.60
2019-05-15T01:31:33.686Z,65.09
2019-05-15T01:34:02.505Z,65.30
2019-05-15T01:36:31.881Z,66.35
2019-05-15T01:39:00.925Z,65.97
2019-05-15T01:41:30.009Z,65.35
2019-05-15T01:43:59.781Z,66.08
2019-05-15T01:46:32.426Z,66.87
2019-05-15T01:49:01.429Z,67.86
2019-05-15T01:51:32.786Z,67.20
2019-05-15T01:54:03.455Z,66.88
2019-05-15T01:56:32.902Z,66.28
2019-05-15T01:59:02.574Z,67.35
2019-05-15T02:01:33.088Z,67.34
2019-05-15T02:04:05.722Z,68.55
2019-05-15T02:06:35.989Z,68.04
2019-05-15T02:09:08.411Z,66.89
2019-05-15T02:11:38.461Z,67.79
2019-05-15T02:14:08.324Z,67.56
2019-05-15T02:16:59.300Z,67.77
2019-05-15T02:19:28.780Z,67.58
2019-05-15T02:21:58.139Z,68.21
2019-05-15T02:24:28.427Z,68.93
2019-05-15T02:26:58.826Z,69.29
2019-05-15T02:29:28.604Z,69.29
2019-05-15T02:31:59.183Z,67.43
2019-05-15T02:34:30.026Z,68.62
2019-05-15T02:37:00.114Z,68.60
2019-05-15T02:39:29.549Z,69.80
2019-05-15T02:41:59.594Z,70.39
2019-05-15T02:44:29.154Z,70.65
2019-05-15T02:46:58.917Z,70.14
2019-05-15T02:49:30.094Z,70.22
2019-05-15T02:52:00.275Z,70.55
2019-05-15T02:54:30.173Z,69.71
2019-05-15T02:56:59.502Z,69.06
2019-05-15T02:59:29.179Z,69.80
2019-05-15T03:01:59.443Z,70.23
2019-05-15T03:04:29.293Z,70.79
2019-05-15T03:07:00.265Z,70.22
2019-05-15T03:09:29.929Z,70.76
2019-05-15T03:11:59.409Z,70.50
2019-05-15T03:14:29.545Z,71.65
2019-05-15T03:16:59.584Z,72.23
2019-05-15T03:19:29.828Z,71.48
2019-05-15T03:21:59.911Z,71.11
2019-05-15T03:24:29.147Z,71.50
2019-05-15T03:26:59.249Z,71.81
2019-05-15T03:29:29.330Z,73.32
2019-05-15T03:32:15.354Z,73.32
2019-05-15T03:34:37.434Z,72.54
2019-05-15T03:37:03.336Z,72.54
2019-05-15T03:39:30.797Z,72.48
2019-05-15T03:42:00.066Z,71.39
2019-05-15T03:44:28.957Z,71.97
2019-05-15T03:46:59.622Z,70.64
2019-05-15T03:49:29.509Z,71.71
2019-05-15T03:51:59.003Z,73.16
2019-05-15T03:54:29.509Z,73.16
2019-05-15T03:56:58.598Z,73.91
2019-05-15T03:59:29.424Z,74.42
2019-05-15T04:01:59.906Z,74.78
2019-05-15T04:04:29.799Z,73.77
2019-05-15T04:06:59.795Z,74.66
2019-05-15T04:09:29.567Z,73.52
2019-05-15T04:12:00.031Z,73.62
2019-05-15T04:14:29.754Z,73.76
2019-05-15T04:16:59.603Z,72.79
2019-05-15T04:19:30.291Z,72.96
2019-05-15T04:22:00.961Z,71.93
2019-05-15T04:24:32.878Z,71.32
2019-05-15T04:27:06.239Z,72.17
2019-05-15T04:29:33.884Z,71.66
2019-05-15T04:32:06.034Z,71.00
2019-05-15T04:34:41.718Z,71.53
2019-05-15T04:37:09.992Z,65.82
2019-05-15T04:39:39.980Z,59.69
2019-05-15T04:42:09.587Z,53.81
2019-05-15T04:44:39.543Z,48.12
2019-05-15T04:47:09.681Z,44.40
2019-05-15T04:49:40.566Z,41.73
2019-05-15T04:52:10.398Z,36.95
2019-05-15T04:54:40.207Z,36.95
2019-05-15T04:57:09.874Z,34.26
2019-05-15T04:59:39.494Z,34.26
2019-05-15T05:02:17.190Z,32.36
2019-05-15T05:04:39.795Z,30.62
2019-05-15T05:07:09.595Z,29.83
2019-05-15T05:09:38.993Z,27.49
2019-05-15T05:12:08.578Z,25.28
2019-05-15T05:14:39.115Z,22.57
2019-05-15T05:17:09.140Z,22.57
2019-05-15T05:19:40.125Z,21.06
2019-05-15T05:22:10.299Z,20.78
2019-05-15T05:24:40.490Z,20.78
2019-05-15T05:27:09.426Z,20.18
2019-05-15T05:29:38.727Z,20.02
2019-05-15T05:32:09.112Z,19.83
2019-05-15T05:34:39.178Z,18.74
2019-05-15T05:37:08.604Z,18.18
2019-05-15T05:39:39.509Z,18.23
2019-05-15T05:42:08.720Z,16.78
2019-05-15T05:44:38.650Z,16.78
2019-05-15T05:47:09.382Z,17.13
2019-05-15T06:00:44.509Z,13.26
2019-05-15T06:03:14.423Z,14.86
2019-05-15T06:05:43.506Z,14.04
2019-05-15T06:08:12.417Z,13.92
2019-05-15T06:10:41.493Z,13.17
2019-05-15T06:13:10.404Z,12.98
2019-05-15T06:15:39.540Z,12.51
2019-05-15T06:18:09.049Z,12.50
2019-05-15T06:20:39.493Z,12.93
2019-05-15T06:23:08.754Z,12.28
2019-05-15T06:25:39.063Z,11.87
2019-05-15T06:28:09.120Z,11.07
2019-05-15T06:30:38.720Z,12.13
2019-05-15T06:33:12.773Z,12.42
2019-05-15T06:35:39.537Z,11.72
2019-05-15T06:38:08.950Z,11.77
2019-05-15T06:40:39.525Z,12.06
2019-05-15T06:43:08.806Z,11.36
2019-05-15T06:45:38.152Z,11.36
2019-05-15T06:48:09.423Z,14.02
2019-05-15T06:50:40.438Z,12.33
2019-05-15T06:53:11.065Z,10.93
2019-05-15T06:55:39.945Z,12.28
2019-05-15T06:58:09.466Z,13.02
2019-05-15T07:00:39.265Z,13.03
2019-05-15T07:03:18.054Z,13.03
2019-05-15T07:05:40.489Z,13.56
2019-05-15T07:08:09.556Z,13.52
2019-05-15T07:10:38.578Z,13.24
2019-05-15T07:13:08.838Z,13.24
2019-05-15T07:15:38.532Z,12.26
2019-05-15T07:18:08.716Z,11.71
2019-05-15T07:20:39.108Z,11.71
2019-05-15T07:23:08.972Z,12.44
2019-05-15T07:25:39.109Z,12.27
2019-05-15T07:28:08.820Z,12.83
2019-05-15T07:30:41.236Z,10.77
2019-05-15T07:33:08.934Z,12.33
2019-05-15T07:35:38.433Z,11.91
2019-05-15T07:38:08.144Z,11.24
2019-05-15T07:40:38.518Z,12.01
2019-05-15T07:43:09.289Z,13.00
2019-05-15T07:45:43.456Z,12.83
2019-05-15T07:48:12.033Z,12.83
2019-05-15T07:50:41.547Z,13.93
2019-05-15T07:53:10.707Z,12.95
2019-05-15T07:55:39.502Z,12.17
2019-05-15T07:58:09.748Z,12.42
2019-05-15T08:00:39.555Z,12.42
2019-05-15T08:03:10.378Z,13.43
2019-05-15T08:05:54.963Z,15.14
2019-05-15T08:08:10.774Z,13.54
2019-05-15T08:10:39.700Z,13.54
2019-05-15T08:13:09.026Z,15.55
2019-05-15T08:15:38.272Z,16.26
2019-05-15T08:18:11.898Z,15.83
2019-05-15T08:20:38.721Z,13.82
2019-05-15T08:23:10.119Z,14.79
2019-05-15T08:25:39.047Z,13.30
2019-05-15T08:28:08.756Z,11.54
2019-05-15T08:30:38.726Z,12.21
2019-05-15T08:33:08.455Z,11.40
2019-05-15T08:35:38.667Z,12.59
2019-05-15T08:38:08.840Z,12.59
2019-05-15T08:40:41.046Z,14.71
2019-05-15T08:43:11.563Z,15.29
2019-05-15T08:45:40.157Z,14.61
2019-05-15T08:48:09.451Z,14.07
2019-05-15T08:50:39.102Z,15.42
2019-05-15T08:53:08.443Z,15.42
2019-05-15T09:00:29.440Z,14.78
2019-05-15T09:05:03.763Z,14.16
2019-05-15T09:07:19.323Z,15.83
2019-05-15T09:24:28.583Z,15.17
2019-05-15T09:32:38.957Z,20.38
2019-05-15T09:35:14.567Z,18.06
2019-05-15T09:39:41.507Z,13.72
2019-05-15T09:43:03.702Z,13.72
2019-05-15T09:45:32.949Z,12.63
2019-05-15T09:48:02.064Z,16.60
2019-05-15T09:50:31.154Z,16.35
2019-05-15T09:53:00.795Z,16.05
2019-05-15T09:55:29.987Z,17.02
2019-05-15T09:57:59.386Z,16.47
2019-05-15T10:00:29.295Z,14.42
2019-05-15T10:02:58.577Z,18.63
2019-05-15T10:05:28.116Z,18.63
2019-05-15T10:07:57.428Z,19.10
2019-05-15T10:10:28.381Z,18.16
2019-05-15T10:12:59.425Z,16.26
2019-05-15T10:15:28.413Z,14.87
2019-05-15T10:17:59.785Z,13.30
2019-05-15T10:20:29.114Z,13.20
2019-05-15T10:22:59.494Z,14.70
2019-05-15T10:25:28.603Z,17.98
2019-05-15T10:27:57.938Z,17.98
2019-05-15T10:30:28.433Z,18.45
2019-05-15T10:32:57.431Z,19.62
2019-05-15T10:35:29.198Z,19.14
2019-05-15T10:37:59.191Z,20.58
2019-05-15T10:40:29.579Z,19.17
2019-05-15T10:42:59.491Z,14.63
2019-05-15T10:45:29.508Z,14.04
2019-05-15T10:47:58.828Z,16.04
2019-05-15T10:50:28.442Z,19.38
2019-05-15T10:52:56.991Z,20.45
2019-05-15T10:55:26.096Z,20.18
2019-05-15T10:57:54.953Z,20.49
2019-05-15T11:00:24.047Z,18.00
2019-05-15T11:02:53.019Z,17.35
2019-05-15T11:05:37.388Z,17.95
2019-05-15T11:07:54.279Z,16.56
2019-05-15T11:10:23.286Z,14.15
2019-05-15T11:12:53.044Z,15.48
2019-05-15T11:15:22.292Z,16.56
2019-05-15T11:17:51.764Z,17.08
2019-05-15T11:20:21.601Z,17.92
2019-05-15T11:22:51.738Z,17.94
2019-05-15T11:26:49.969Z,17.03
2019-05-15T11:31:24.758Z,16.12
2019-05-15T11:39:29.005Z,18.41
2019-05-15T11:42:15.577Z,16.54
2019-05-15T11:44:48.412Z,21.31
2019-05-15T11:48:51.034Z,20.54
2019-05-15T11:52:04.070Z,22.45
2019-05-15T11:54:38.418Z,22.14
2019-05-15T12:02:31.927Z,21.12
2019-05-15T12:06:23.072Z,20.28
2019-05-15T12:08:53.851Z,21.13
2019-05-15T12:11:33.294Z,18.75
2019-05-15T12:13:53.699Z,17.53
2019-05-15T12:16:22.771Z,16.69
2019-05-15T12:18:51.964Z,18.99
2019-05-15T12:21:21.756Z,19.69
2019-05-15T12:23:51.076Z,16.57
2019-05-15T12:26:21.411Z,17.18
2019-05-15T12:28:51.644Z,19.47
2019-05-15T12:31:24.660Z,21.35
2019-05-15T12:33:53.562Z,23.02
2019-05-15T12:38:53.584Z,24.32
2019-05-15T13:00:38.515Z,15.68
2019-05-15T13:05:19.031Z,17.83
2019-05-15T13:17:23.895Z,20.64
2019-05-15T13:19:54.513Z,21.90
2019-05-15T13:22:25.019Z,23.33
2019-05-15T13:24:54.611Z,21.35
2019-05-15T13:27:25.112Z,20.17
2019-05-15T13:29:54.581Z,19.98
2019-05-15T13:32:23.442Z,19.91
2019-05-15T13:34:52.929Z,20.90
2019-05-15T13:37:27.289Z,21.63
2019-05-15T13:39:54.618Z,21.41
2019-05-15T13:42:24.560Z,22.03
2019-05-15T13:44:53.996Z,23.38
2019-05-15T13:47:23.036Z,24.33
2019-05-15T13:49:53.503Z,23.67
2019-05-15T13:52:24.202Z,22.86
2019-05-15T13:54:53.641Z,23.45
2019-05-15T13:57:22.597Z,21.73
2019-05-15T13:59:55.303Z,20.71
2019-05-15T14:03:55.270Z,20.71
2019-05-15T14:08:42.666Z,22.81
2019-05-15T14:37:08.732Z,21.49
2019-05-15T14:41:12.426Z,22.66
2019-05-15T14:44:40.633Z,23.50
2019-05-15T16:21:59.484Z,27.63
2019-05-15T16:24:29.316Z,26.98
2019-05-15T16:27:22.993Z,28.15
2019-05-15T16:29:52.454Z,28.15
2019-05-15T16:46:19.245Z,29.53
2019-05-15T16:50:10.792Z,29.66
2019-05-15T16:54:51.351Z,29.74
2019-05-15T16:57:38.593Z,30.84
2019-05-15T17:03:08.222Z,31.26
2019-05-15T17:04:32.989Z,31.88
2019-05-15T17:20:42.310Z,31.95
2019-05-15T17:23:11.679Z,31.74
2019-05-15T17:25:39.858Z,31.74
2019-05-15T17:28:09.285Z,31.28
2019-05-15T17:30:38.574Z,31.73
2019-05-15T17:33:07.753Z,30.20
2019-05-15T17:35:38.116Z,30.20
2019-05-15T17:38:07.131Z,30.07
2019-05-15T17:40:37.819Z,29.78
2019-05-15T17:43:09.413Z,29.61
2019-05-15T17:45:38.982Z,28.82
2019-05-15T17:48:11.866Z,28.30
2019-05-15T17:50:48.405Z,27.86
2019-05-15T17:53:12.521Z,28.27
2019-05-15T17:55:41.983Z,28.14
2019-05-15T17:58:11.682Z,27.05
2019-05-15T18:00:41.033Z,27.04
2019-05-15T18:08:19.721Z,27.21
2019-05-15T18:10:50.058Z,27.63
2019-05-15T18:13:19.443Z,28.33
2019-05-15T18:15:48.984Z,28.70
2019-05-15T18:18:18.766Z,29.21
2019-05-15T18:20:48.716Z,29.69
2019-05-15T18:23:18.990Z,29.84
2019-05-15T18:25:49.227Z,29.79
2019-05-15T18:28:18.849Z,30.20
2019-05-15T18:30:48.335Z,30.14
2019-05-15T18:33:18.545Z,30.35
2019-05-15T18:35:48.613Z,30.77
2019-05-15T18:38:20.322Z,31.86
2019-05-15T18:40:49.756Z,32.30
2019-05-15T18:43:19.316Z,32.34
2019-05-15T18:45:48.479Z,33.18
2019-05-15T18:48:18.422Z,32.94
2019-05-15T18:50:48.216Z,33.42
2019-05-15T18:53:17.761Z,33.85
2019-05-15T18:55:48.765Z,35.22
2019-05-15T18:58:18.982Z,33.96
2019-05-15T19:00:49.092Z,33.14
2019-05-15T19:03:22.605Z,33.56
2019-05-15T19:05:50.164Z,33.95
2019-05-15T19:08:19.306Z,34.04
2019-05-15T19:10:48.382Z,34.75
2019-05-15T19:13:17.266Z,34.43
2019-05-15T19:15:48.373Z,34.80
2019-05-15T19:18:18.651Z,34.54
2019-05-15T19:20:48.657Z,34.13
2019-05-15T19:23:18.161Z,34.02
2019-05-15T19:25:48.404Z,34.29
2019-05-15T19:28:18.858Z,35.84
2019-05-15T19:30:48.549Z,35.84
2019-05-15T19:33:22.524Z,35.19
2019-05-15T19:35:48.512Z,34.54
2019-05-15T19:38:18.599Z,33.71
2019-05-15T19:40:49.800Z,33.44
2019-05-15T19:43:19.151Z,33.89
2019-05-15T19:45:48.571Z,34.14
2019-05-15T19:48:19.923Z,34.20
2019-05-15T19:50:49.279Z,33.83
2019-05-15T19:53:19.748Z,33.81
2019-05-15T19:55:49.472Z,33.81
2019-05-15T19:58:19.043Z,33.78
2019-05-15T20:00:51.481Z,34.91
2019-05-15T20:03:21.580Z,34.92
2019-05-15T20:05:53.520Z,34.38
2019-05-15T20:08:24.920Z,34.25
2019-05-15T20:10:54.645Z,33.96
2019-05-15T20:13:23.775Z,33.71
2019-05-15T20:15:53.521Z,34.10
2019-05-15T20:18:23.307Z,35.12
2019-05-15T20:20:52.584Z,35.12
2019-05-15T20:23:20.725Z,34.06
2019-05-15T20:25:50.588Z,34.14
2019-05-15T20:28:19.289Z,34.46
2019-05-15T20:30:49.540Z,34.88
2019-05-15T20:33:18.795Z,36.06
2019-05-15T20:35:48.193Z,36.06
2019-05-15T20:38:17.534Z,36.96
2019-05-15T20:40:48.412Z,37.87
2019-05-15T20:43:18.522Z,37.58
2019-05-15T20:45:48.438Z,37.85
2019-05-15T20:48:18.543Z,38.91
2019-05-15T20:50:48.270Z,39.64
2019-05-15T20:53:18.234Z,39.64
2019-05-15T20:55:48.434Z,40.21
2019-05-15T20:58:19.454Z,40.42
2019-05-15T21:00:49.726Z,40.42
2019-05-15T21:03:19.486Z,41.17
2019-05-15T21:05:48.894Z,41.70
2019-05-15T21:08:18.536Z,41.70
2019-05-15T21:10:49.221Z,42.44
2019-05-15T21:13:19.338Z,42.03
2019-05-15T21:15:48.996Z,43.42
2019-05-15T21:18:20.230Z,43.89
2019-05-15T21:20:51.799Z,43.42
2019-05-15T21:23:21.721Z,44.82
2019-05-15T21:25:50.051Z,44.93
2019-05-15T21:28:19.192Z,45.57
2019-05-15T21:30:49.434Z,45.58
2019-05-15T21:33:18.762Z,46.09
2019-05-15T21:35:48.306Z,46.18
2019-05-15T21:38:18.382Z,47.10
2019-05-15T21:40:48.479Z,47.33
2019-05-15T21:43:17.926Z,47.89
2019-05-15T21:45:48.822Z,49.21
2019-05-15T21:48:18.473Z,49.05
2019-05-15T21:50:48.376Z,47.58
2019-05-15T21:53:17.615Z,49.69
2019-05-15T21:55:47.720Z,49.69
2019-05-15T21:58:18.684Z,50.74
2019-05-15T22:00:53.960Z,49.60
2019-05-15T22:03:25.645Z,48.35
2019-05-15T22:05:54.859Z,50.55
2019-05-15T22:08:24.112Z,50.55
2019-05-15T22:10:53.082Z,51.64
2019-05-15T22:13:22.505Z,51.30
2019-05-15T22:15:51.645Z,52.50
2019-05-15T22:18:20.959Z,52.75
2019-05-15T22:20:50.060Z,52.75
2019-05-15T22:23:19.493Z,52.55
2019-05-15T22:28:58.461Z,52.34
2019-05-15T22:31:28.580Z,53.59
2019-05-15T22:33:58.538Z,54.34
2019-05-15T22:36:28.069Z,52.71
2019-05-15T22:38:59.366Z,53.50
2019-05-15T22:41:28.618Z,53.62
2019-05-15T22:43:57.768Z,54.90
2019-05-15T22:46:28.873Z,54.90
2019-05-15T22:48:59.009Z,54.87
2019-05-15T22:51:28.972Z,54.77
2019-05-15T22:53:58.464Z,54.63
2019-05-15T22:56:29.609Z,54.19
2019-05-15T22:58:58.491Z,54.39
2019-05-15T23:01:27.667Z,54.16
2019-05-15T23:03:58.365Z,52.63
2019-05-15T23:06:28.250Z,53.20
2019-05-15T23:08:58.105Z,53.71
2019-05-15T23:11:29.738Z,54.54
2019-05-15T23:13:58.779Z,55.63
2019-05-15T23:16:28.375Z,55.35
2019-05-15T23:18:58.820Z,54.68
2019-05-15T23:21:30.053Z,54.68
2019-05-15T23:26:10.751Z,54.52
2019-05-15T23:28:38.897Z,53.44
2019-05-15T23:31:08.434Z,54.43
2019-05-15T23:33:38.799Z,54.15
2019-05-15T23:36:20.627Z,53.79
2019-05-15T23:38:51.450Z,53.75
2019-05-15T23:41:20.543Z,53.65
2019-05-15T23:43:49.560Z,53.65
2019-05-15T23:46:18.906Z,55.49
2019-05-15T23:48:48.534Z,55.49
2019-05-15T23:51:18.916Z,54.95
2019-05-15T23:53:48.461Z,54.97
2019-05-15T23:56:19.008Z,53.99
2019-05-15T23:58:47.868Z,55.34
